Moenave, Arizona
Current Conditions -  °F | °C
As of 10:54 AM on Sunday 25 Jan 2015 (Local Time) from KGCN Reporting Station
Clear Clear  
Wind Chill: 50°   Ceiling: Unl
Heat Index: 50°   Visibility: 10mi
Dew Point: 22°   Wind: 14mph
Humidity: 33%   Direction: 60°ENE
Pressure: 30.36"   Gusts: 21mph
Location:  35.9808°N, 111.359°W
Report Text: KGCN 251754Z 06012G18KT 10SM CLR 10/M06 A3036 RMK AO2 SLP262 T01001056 10100 21050 53005 $
Loading
Personal Weather Stations






























Interactive Weather Map New forecast layout! Learn more

10-Day Weather Forecast

Advertisements
Track Severe Weather on mobile